Time;durP1;ratioP1;P1;durP2;ratioP2;P2;SDS_P1;SDS_P2;PMS_P1;PMS_P2;Temp;Humidity;BMP_temperature;BMP_pressure;BME280_temperature;BME280_humidity;BME280_pressure;Samples;Min_cycle;Max_cycle;Signal;HPM_P1;HPM_P2
2021/12/17 00:00:25;;;;;;;;;;;;;;;28.42;62.99;100975.56;5125026;27;70307;-33
2021/12/17 00:05:43;;;;;;;;;;;;;;;28.52;65.82;100962.50;5124784;27;70293;-33
2021/12/17 00:08:14;;;;;;;;;;;;;;;28.57;67.04;100975.38;5126431;27;65558;-34
2021/12/17 00:10:44;;;;;;;;;;;;;;;28.57;67.12;100969.16;5133994;27;70742;-35
2021/12/17 00:13:15;;;;;;;;;;;;;;;28.61;67.85;100973.97;5120560;27;65729;-35
2021/12/17 00:15:46;;;;;;;;;;;;;;;28.67;68.04;100988.50;5122940;27;69409;-36
2021/12/17 00:18:24;;;;;;;;;;;;;;;28.69;68.65;100984.56;5111978;27;66858;-34
2021/12/17 00:49:07;;;;;;;;;;;;;;;29.08;63.89;101018.13;5064712;27;70636;-33
2021/12/17 00:54:36;;;;;;;;;;;;;;;29.13;63.20;101025.63;5103997;27;70333;-34
2021/12/17 00:57:23;;;;;;;;;;;;;;;29.14;63.43;101021.88;5120306;27;66632;-34
2021/12/17 00:59:57;;;;;;;;;;;;;;;29.17;63.35;101032.28;5113745;27;69777;-34
2021/12/17 01:02:30;;;;;;;;;;;;;;;29.18;62.99;101031.25;5119017;27;66343;-34
2021/12/17 01:05:09;;;;;;;;;;;;;;;29.20;62.99;101045.38;5112298;27;69554;-34
2021/12/17 01:07:46;;;;;;;;;;;;;;;29.22;63.09;101042.47;5107163;27;66955;-34
2021/12/17 01:10:26;;;;;;;;;;;;;;;29.22;62.80;101043.28;5109897;27;70324;-36
2021/12/17 01:13:10;;;;;;;;;;;;;;;29.24;63.01;101043.91;5101703;27;66105;-33
2021/12/17 01:16:21;;;;;;;;;;;;;;;29.17;63.00;101037.69;5056071;28;70194;-34
2021/12/17 01:19:55;;;;;;;;;;;;;;;29.28;62.93;101047.03;5090187;27;66644;-34
2021/12/17 01:35:20;;;;;;;;;;;;;;;29.31;62.62;101058.28;5090843;27;64972;-33
2021/12/17 01:35:56;;;;;;;;;;;;;;;29.38;62.64;101055.59;5125637;27;69761;-34
2021/12/17 01:44:46;;;;;;;;;;;;;;;29.43;62.54;101046.88;5033804;28;65699;-34
2021/12/17 01:47:24;;;;;;;;;;;;;;;29.45;62.62;101058.28;5016387;28;70137;-34
2021/12/17 02:01:44;;;;;;;;;;;;;;;29.54;62.33;101067.88;5115056;27;66906;-34
2021/12/17 02:04:19;;;;;;;;;;;;;;;29.55;62.30;101064.94;5119351;27;70351;-34
2021/12/17 02:07:24;;;;;;;;;;;;;;;29.57;62.03;101065.59;5119279;27;66956;-34
2021/12/17 02:33:27;;;;;;;;;;;;;;;29.78;61.23;101082.66;5033740;28;70475;-33
2021/12/17 02:36:00;;;;;;;;;;;;;;;29.80;61.41;101092.22;5024934;28;66000;-34
2021/12/17 02:38:38;;;;;;;;;;;;;;;29.82;61.29;101084.75;5088713;27;69979;-35
2021/12/17 02:47:25;;;;;;;;;;;;;;;29.91;61.50;101085.38;5101349;27;66647;-33
2021/12/17 02:49:56;;;;;;;;;;;;;;;29.94;61.10;101092.22;5123273;27;70015;-33
2021/12/17 02:52:30;;;;;;;;;;;;;;;29.95;61.08;101085.78;5103873;27;66308;-34
2021/12/17 02:55:01;;;;;;;;;;;;;;;29.96;61.21;101091.00;5110158;27;70502;-34
2021/12/17 02:57:32;;;;;;;;;;;;;;;30.00;61.36;101086.81;5104233;27;66514;-34
2021/12/17 03:00:06;;;;;;;;;;;;;;;30.02;60.81;101083.91;5109057;27;69302;-34
2021/12/17 03:02:42;;;;;;;;;;;;;;;30.04;61.27;101087.25;5116259;27;65847;-34
2021/12/17 03:05:12;;;;;;;;;;;;;;;30.07;61.09;101070.59;5113519;27;70334;-34
2021/12/17 03:07:47;;;;;;;;;;;;;;;30.10;61.06;101070.16;5121813;27;66170;-34
2021/12/17 03:10:17;;;;;;;;;;;;;;;30.12;60.76;101073.50;5131285;27;69163;-33
2021/12/17 03:12:51;;;;;;;;;;;;;;;30.15;60.59;101072.25;5125789;27;65814;-33
2021/12/17 03:24:00;;;;;;;;;;;;;;;30.25;60.88;101062.66;5123478;27;65282;-33
2021/12/17 03:26:31;;;;;;;;;;;;;;;30.27;60.73;101055.16;5109355;27;70569;-33
2021/12/17 03:29:06;;;;;;;;;;;;;;;30.30;60.75;101044.97;5107368;27;66172;-34
2021/12/17 03:31:44;;;;;;;;;;;;;;;30.32;60.36;101046.44;5099490;27;70484;-34
2021/12/17 03:36:53;;;;;;;;;;;;;;;30.37;60.21;101040.34;5118910;27;69843;-34
2021/12/17 03:39:27;;;;;;;;;;;;;;;30.41;60.56;101044.31;5107566;27;66005;-33
2021/12/17 03:42:00;;;;;;;;;;;;;;;30.43;60.15;101031.41;5120919;27;69923;-33
2021/12/17 03:44:36;;;;;;;;;;;;;;;30.44;60.18;101027.63;5099726;27;66518;-33
2021/12/17 03:47:29;;;;;;;;;;;;;;;30.48;60.08;101026.19;5088806;27;70519;-33
2021/12/17 03:50:20;;;;;;;;;;;;;;;30.50;60.50;101018.66;5099196;27;65360;-33
2021/12/17 03:52:50;;;;;;;;;;;;;;;30.54;60.17;101017.19;5099065;27;69492;-33
2021/12/17 03:55:27;;;;;;;;;;;;;;;30.56;59.97;101015.09;5109634;27;65779;-33
2021/12/17 03:58:01;;;;;;;;;;;;;;;30.59;60.36;101009.28;5099384;27;70982;-33
2021/12/17 04:00:34;;;;;;;;;;;;;;;30.61;60.08;101001.75;5113082;27;66564;-34
2021/12/17 04:03:06;;;;;;;;;;;;;;;30.64;60.43;101001.31;5118049;27;70364;-33
2021/12/17 04:05:46;;;;;;;;;;;;;;;30.65;60.11;100991.34;5106402;27;66176;-34
2021/12/17 04:08:46;;;;;;;;;;;;;;;30.67;60.19;100987.38;5125804;27;69201;-34
2021/12/17 04:11:36;;;;;;;;;;;;;;;30.69;59.88;100981.72;5121526;27;66819;-34
2021/12/17 04:14:32;;;;;;;;;;;;;;;30.71;59.73;100980.44;5103297;27;69047;-34
2021/12/17 04:17:05;;;;;;;;;;;;;;;30.73;60.19;100983.78;5099458;27;66595;-34
2021/12/17 04:19:36;;;;;;;;;;;;;;;30.75;59.75;100977.31;5112168;27;69736;-34
2021/12/17 04:22:07;;;;;;;;;;;;;;;30.77;60.22;100972.50;5116429;27;66857;-34
2021/12/17 04:24:37;;;;;;;;;;;;;;;30.78;60.03;100966.03;5133777;27;69602;-34
2021/12/17 04:27:07;;;;;;;;;;;;;;;30.80;60.08;100961.28;5117887;27;66066;-34
2021/12/17 04:29:42;;;;;;;;;;;;;;;30.81;59.63;100952.09;5112749;27;69761;-34
2021/12/17 04:32:13;;;;;;;;;;;;;;;30.82;60.09;100948.34;5106267;27;66599;-34
2021/12/17 04:34:44;;;;;;;;;;;;;;;30.86;59.87;100946.84;5101467;27;69322;-32
2021/12/17 04:37:14;;;;;;;;;;;;;;;30.86;59.75;100944.97;5119644;27;65253;-32
2021/12/17 04:39:52;;;;;;;;;;;;;;;30.88;59.43;100942.06;5106896;27;69374;-33
2021/12/17 04:42:39;;;;;;;;;;;;;;;30.89;59.68;100927.44;5109286;27;65996;-33
2021/12/17 04:45:10;;;;;;;;;;;;;;;30.91;59.42;100928.06;5115760;27;69426;-34
2021/12/17 04:59:38;;;;;;;;;;;;;;;30.99;59.55;100900.72;5103494;27;66073;-34
2021/12/17 05:02:08;;;;;;;;;;;;;;;31.02;59.58;100894.03;5113686;27;70217;-34
2021/12/17 05:04:48;;;;;;;;;;;;;;;31.02;59.83;100894.03;5103851;27;66678;-35
2021/12/17 05:07:18;;;;;;;;;;;;;;;31.05;59.65;100893.59;5111825;27;70004;-34
2021/12/17 05:10:01;;;;;;;;;;;;;;;31.07;59.81;100881.47;5102821;27;65653;-34
2021/12/17 05:18:32;;;;;;;;;;;;;;;31.14;59.19;100873.28;5108403;27;70073;-33
2021/12/17 05:21:05;;;;;;;;;;;;;;;31.16;59.18;100866.59;5126402;27;66988;-34
2021/12/17 05:23:46;;;;;;;;;;;;;;;31.19;59.35;100862.59;5106207;27;69242;-34
2021/12/17 05:26:19;;;;;;;;;;;;;;;31.20;59.12;100860.72;5117451;27;65611;-34
2021/12/17 05:28:56;;;;;;;;;;;;;;;31.23;59.32;100857.56;5103499;27;69835;-33
2021/12/17 05:31:39;;;;;;;;;;;;;;;31.24;59.72;100851.94;5105874;27;65552;-33
2021/12/17 05:34:09;;;;;;;;;;;;;;;31.25;59.21;100852.75;5107390;27;70142;-34
2021/12/17 05:36:50;;;;;;;;;;;;;;;31.28;59.33;100849.59;5112244;27;66672;-33
2021/12/17 05:39:24;;;;;;;;;;;;;;;31.29;59.38;100840.44;5106607;27;69386;-33
2021/12/17 05:42:26;;;;;;;;;;;;;;;31.29;59.78;100841.25;5114707;27;65861;-34
2021/12/17 05:45:20;;;;;;;;;;;;;;;31.30;59.72;100831.22;5095250;27;69688;-38
2021/12/17 05:47:50;;;;;;;;;;;;;;;31.30;59.86;100826.63;5114334;27;66416;-34
2021/12/17 05:53:55;;;;;;;;;;;;;;;31.31;59.94;100808.50;5095675;27;66217;-33
2021/12/17 05:56:28;;;;;;;;;;;;;;;31.30;59.75;100804.13;5127947;27;69446;-35
2021/12/17 05:59:11;;;;;;;;;;;;;;;31.31;59.47;100800.34;5091297;27;65235;-34
2021/12/17 06:01:47;;;;;;;;;;;;;;;31.31;59.72;100803.06;5110638;27;70483;-34
2021/12/17 06:04:37;;;;;;;;;;;;;;;31.29;59.89;100797.88;5107474;27;65428;-34
2021/12/17 06:07:27;;;;;;;;;;;;;;;31.31;60.08;100798.47;5116509;27;70088;-35
2021/12/17 06:10:09;;;;;;;;;;;;;;;31.31;59.70;100801.19;5106689;27;66811;-34
2021/12/17 06:12:46;;;;;;;;;;;;;;;31.33;59.82;100792.84;5106334;27;70542;-33
2021/12/17 06:15:27;;;;;;;;;;;;;;;31.34;59.49;100789.06;5122191;27;65610;-33
2021/12/17 06:17:57;;;;;;;;;;;;;;;31.33;60.15;100782.00;5107041;27;70601;-33
2021/12/17 06:20:28;;;;;;;;;;;;;;;31.35;60.21;100777.19;5133415;27;65637;-33
2021/12/17 06:23:23;;;;;;;;;;;;;;;31.37;59.78;100775.09;5109519;27;69776;-34
2021/12/17 06:26:07;;;;;;;;;;;;;;;31.39;60.08;100781.13;5106674;27;66694;-34
2021/12/17 06:28:55;;;;;;;;;;;;;;;31.39;59.92;100771.09;5109107;27;69766;-34
2021/12/17 06:31:39;;;;;;;;;;;;;;;31.41;60.22;100757.34;5110549;27;66102;-34
2021/12/17 06:34:10;;;;;;;;;;;;;;;31.43;59.61;100754.41;5128910;27;69403;-33
2021/12/17 06:38:04;;;;;;;;;;;;;;;;;;;;;
2021/12/17 06:40:47;;;;;;;;;;;;;;;31.45;59.58;100747.69;5106780;27;69440;-34
2021/12/17 06:43:33;;;;;;;;;;;;;;;31.46;59.74;100748.53;5090328;27;65698;-34
2021/12/17 06:56:13;;;;;;;;;;;;;;;31.47;59.94;100718.47;5108604;27;66429;-34
2021/12/17 06:59:03;;;;;;;;;;;;;;;31.50;59.60;100717.19;5095780;27;70271;-33
2021/12/17 07:17:34;;;;;;;;;;;;;;;31.51;59.91;100692.56;5122641;27;70362;-34
2021/12/17 07:22:46;;;;;;;;;;;;;;;31.52;59.97;100691.50;5099894;27;62584;-33
2021/12/17 07:28:25;;;;;;;;;;;;;;;31.53;60.04;100685.00;5111756;27;69106;-33
2021/12/17 07:33:46;;;;;;;;;;;;;;;31.56;59.82;100675.59;5110536;27;70135;-35
2021/12/17 07:36:42;;;;;;;;;;;;;;;31.49;59.86;100673.00;5106922;27;65938;-34
2021/12/17 07:39:16;;;;;;;;;;;;;;;31.55;59.73;100674.78;5098998;27;70049;-34
2021/12/17 07:41:46;;;;;;;;;;;;;;;31.55;60.09;100672.06;5118994;27;66853;-33
2021/12/17 07:44:52;;;;;;;;;;;;;;;31.56;60.02;100673.69;5067610;28;70162;-35
2021/12/17 07:47:33;;;;;;;;;;;;;;;31.56;60.05;100665.56;5091752;27;65248;-34
2021/12/17 07:50:22;;;;;;;;;;;;;;;31.57;60.38;100671.84;5118140;27;69835;-34
2021/12/17 07:53:27;;;;;;;;;;;;;;;31.58;60.22;100674.31;5105943;27;66705;-33
2021/12/17 07:56:15;;;;;;;;;;;;;;;31.59;59.86;100661.56;5111436;27;70232;-35
2021/12/17 07:58:46;;;;;;;;;;;;;;;31.59;59.96;100667.00;5099828;27;66700;-34
2021/12/17 08:01:17;;;;;;;;;;;;;;;31.60;59.85;100671.38;5083536;27;71089;-34
2021/12/17 08:03:49;;;;;;;;;;;;;;;31.61;60.35;100673.84;5099783;27;66722;-34
2021/12/17 08:06:30;;;;;;;;;;;;;;;31.58;60.16;100666.19;5101335;27;69573;-35
2021/12/17 08:09:11;;;;;;;;;;;;;;;31.61;59.68;100671.13;5105695;27;66425;-36
2021/12/17 08:11:44;;;;;;;;;;;;;;;31.63;59.62;100659.25;5124990;27;69382;-33
2021/12/17 08:14:17;;;;;;;;;;;;;;;31.61;59.60;100654.88;5122769;27;67673;-34
2021/12/17 08:28:03;;;;;;;;;;;;;;;31.66;59.60;100651.47;5102933;27;68999;-34
2021/12/17 08:30:39;;;;;;;;;;;;;;;31.67;60.03;100660.44;5106480;27;65679;-35
2021/12/17 08:33:19;;;;;;;;;;;;;;;31.67;59.80;100653.13;5101675;27;70254;-34
2021/12/17 08:35:54;;;;;;;;;;;;;;;31.62;59.96;100644.84;5105317;27;66856;-34
2021/12/17 08:38:31;;;;;;;;;;;;;;;31.57;60.24;100642.03;5112620;27;70346;-33
2021/12/17 08:41:09;;;;;;;;;;;;;;;31.70;60.00;100654.53;5101849;27;66301;-35
2021/12/17 08:43:40;;;;;;;;;;;;;;;31.71;60.09;100654.31;5100108;27;69820;-33
2021/12/17 08:46:10;;;;;;;;;;;;;;;31.74;59.71;100653.03;5115597;27;67201;-34
2021/12/17 08:48:53;;;;;;;;;;;;;;;31.73;59.74;100657.63;5118980;27;69153;-34
2021/12/17 08:51:33;;;;;;;;;;;;;;;31.74;60.00;100661.16;5101790;27;66763;-34
2021/12/17 08:54:05;;;;;;;;;;;;;;;31.75;60.01;100668.25;5086658;27;70328;-34
2021/12/17 08:56:42;;;;;;;;;;;;;;;31.74;60.31;100675.56;5098849;27;66612;-35
2021/12/17 08:59:16;;;;;;;;;;;;;;;31.76;59.63;100675.31;5098599;27;70296;-34
2021/12/17 09:02:13;;;;;;;;;;;;;;;31.77;59.94;100682.41;5119665;27;66709;-34
2021/12/17 09:05:04;;;;;;;;;;;;;;;31.77;59.63;100676.97;5089416;27;70236;-34
2021/12/17 09:07:37;;;;;;;;;;;;;;;31.78;60.04;100671.31;5105573;27;66529;-33
2021/12/17 09:10:28;;;;;;;;;;;;;;;31.79;59.85;100674.88;5118802;27;69527;-34
2021/12/17 09:12:58;;;;;;;;;;;;;;;31.79;59.76;100666.72;5109916;27;65555;-34
2021/12/17 09:15:28;;;;;;;;;;;;;;;31.80;59.88;100657.53;5112805;27;69563;-34
2021/12/17 09:18:00;;;;;;;;;;;;;;;31.80;59.80;100668.38;5128531;27;65255;-34
2021/12/17 09:20:31;;;;;;;;;;;;;;;31.81;59.78;100664.59;5102240;27;70176;-34
2021/12/17 09:23:02;;;;;;;;;;;;;;;31.82;59.37;100663.56;5111619;27;66134;-33
2021/12/17 09:25:33;;;;;;;;;;;;;;;31.81;59.55;100659.16;5105534;27;71212;-34
2021/12/17 09:28:06;;;;;;;;;;;;;;;31.82;59.50;100666.25;5112017;27;65860;-34
2021/12/17 09:30:59;;;;;;;;;;;;;;;31.82;59.77;100671.69;5130075;27;69791;-34
2021/12/17 09:33:28;;;;;;;;;;;;;;;31.81;59.32;100675.44;5125657;27;66458;-34
2021/12/17 09:35:59;;;;;;;;;;;;;;;31.82;59.71;100671.69;5129661;27;70525;-34
2021/12/17 09:38:30;;;;;;;;;;;;;;;31.82;59.24;100677.94;5133655;27;67271;-33
2021/12/17 09:40:59;;;;;;;;;;;;;;;31.84;59.61;100680.41;5123723;27;70158;-34
2021/12/17 09:43:30;;;;;;;;;;;;;;;31.83;59.33;100673.34;5130408;27;65850;-33
2021/12/17 09:46:00;;;;;;;;;;;;;;;31.82;59.26;100687.97;5122796;27;69443;-34
2021/12/17 09:48:30;;;;;;;;;;;;;;;31.84;59.33;100691.25;5125282;27;65491;-34
2021/12/17 09:51:02;;;;;;;;;;;;;;;31.83;59.17;100695.84;5124771;27;70243;-34
2021/12/17 09:53:33;;;;;;;;;;;;;;;31.82;59.20;100699.63;5122940;27;65768;-34
2021/12/17 09:56:04;;;;;;;;;;;;;;;31.77;59.80;100690.53;5130853;27;70084;-34
2021/12/17 09:58:34;;;;;;;;;;;;;;;31.81;59.69;100700.66;5128463;27;65852;-34
2021/12/17 10:01:04;;;;;;;;;;;;;;;31.82;59.32;100698.81;5105932;27;69895;-34
2021/12/17 10:03:34;;;;;;;;;;;;;;;31.81;59.36;100703.38;5126647;27;65858;-34
2021/12/17 10:06:06;;;;;;;;;;;;;;;31.81;59.63;100699.84;5128846;27;69003;-34
2021/12/17 10:08:47;;;;;;;;;;;;;;;31.81;59.36;100700.66;5127000;27;65689;-34
2021/12/17 10:11:18;;;;;;;;;;;;;;;31.81;59.90;100708.00;5124148;27;70388;-34
2021/12/17 10:13:48;;;;;;;;;;;;;;;31.81;59.55;100713.41;5125991;27;65743;-33
2021/12/17 10:16:19;;;;;;;;;;;;;;;31.79;59.77;100715.56;5127544;27;70510;-34
2021/12/17 10:18:50;;;;;;;;;;;;;;;31.80;59.94;100714.47;5125818;27;65529;-34
2021/12/17 10:21:24;;;;;;;;;;;;;;;31.80;60.06;100725.34;5121559;27;70760;-34
2021/12/17 10:23:55;;;;;;;;;;;;;;;31.79;59.50;100719.09;5128632;27;66009;-34
2021/12/17 10:26:27;;;;;;;;;;;;;;;31.79;59.86;100731.81;5121548;27;69526;-35
2021/12/17 10:28:59;;;;;;;;;;;;;;;31.78;59.82;100735.56;5128028;27;66827;-33
2021/12/17 10:31:30;;;;;;;;;;;;;;;31.78;60.50;100746.41;5121789;27;69370;-34
2021/12/17 10:34:03;;;;;;;;;;;;;;;31.81;60.87;100751.38;5122203;27;66865;-35
2021/12/17 10:36:37;;;;;;;;;;;;;;;31.82;61.49;100747.63;5122375;27;69434;-34
2021/12/17 10:39:25;;;;;;;;;;;;;;;31.83;61.34;100758.25;5123060;27;65994;-35
2021/12/17 10:41:54;;;;;;;;;;;;;;;31.86;61.13;100764.28;5094554;27;70386;-35
2021/12/17 10:44:27;;;;;;;;;;;;;;;31.82;61.63;100764.72;5123321;27;66580;-34
2021/12/17 10:49:57;;;;;;;;;;;;;;;31.84;62.24;100767.19;5100048;27;66268;-35
2021/12/17 10:52:40;;;;;;;;;;;;;;;31.85;62.16;100768.88;5116463;27;70532;-34
2021/12/17 10:55:16;;;;;;;;;;;;;;;31.83;62.57;100766.38;5106796;27;66703;-34
2021/12/17 10:57:48;;;;;;;;;;;;;;;31.82;63.16;100780.19;5131149;27;70400;-34
2021/12/17 11:00:20;;;;;;;;;;;;;;;31.82;63.01;100785.59;5124561;27;66566;-35
2021/12/17 11:02:50;;;;;;;;;;;;;;;31.81;63.33;100786.66;5122389;27;70900;-36
2021/12/17 11:05:22;;;;;;;;;;;;;;;31.81;63.85;100789.34;5127388;27;66098;-34
2021/12/17 11:07:52;;;;;;;;;;;;;;;31.80;64.31;100798.56;5130873;27;69315;-35
2021/12/17 11:10:31;;;;;;;;;;;;;;;31.79;64.50;100797.75;5126521;27;66615;-34
2021/12/17 11:13:01;;;;;;;;;;;;;;;31.79;64.72;100807.75;5119758;27;70164;-35
2021/12/17 11:15:31;;;;;;;;;;;;;;;31.76;65.02;100802.78;5101487;27;66335;-33
2021/12/17 11:18:02;;;;;;;;;;;;;;;31.76;64.96;100802.78;5122986;27;69140;-34
2021/12/17 11:20:39;;;;;;;;;;;;;;;31.74;64.75;100821.19;5121634;27;67277;-34
2021/12/17 11:23:13;;;;;;;;;;;;;;;31.75;65.30;100822.81;5118654;27;69472;-35
2021/12/17 11:25:48;;;;;;;;;;;;;;;31.75;65.09;100833.66;5116644;27;65926;-35
2021/12/17 11:28:18;;;;;;;;;;;;;;;31.77;65.19;100837.00;5119468;27;70062;-34
2021/12/17 11:30:49;;;;;;;;;;;;;;;31.76;65.38;100835.31;5120749;27;66104;-35
2021/12/17 11:33:19;;;;;;;;;;;;;;;31.77;65.58;100843.25;5097012;27;69801;-34
2021/12/17 11:35:50;;;;;;;;;;;;;;;31.75;65.32;100842.63;5120421;27;66579;-33
2021/12/17 11:38:43;;;;;;;;;;;;;;;31.72;65.62;100834.94;5117255;27;70225;-33
2021/12/17 11:41:38;;;;;;;;;;;;;;;31.70;65.96;100844.38;5120814;27;65979;-34
2021/12/17 11:44:09;;;;;;;;;;;;;;;31.69;68.98;100848.16;5119436;27;69566;-34
2021/12/17 11:46:40;;;;;;;;;;;;;;;31.69;68.66;100850.84;5109995;27;66056;-35
2021/12/17 11:49:15;;;;;;;;;;;;;;;31.73;67.31;100857.47;5113338;27;69637;-35
2021/12/17 11:51:53;;;;;;;;;;;;;;;31.73;66.16;100852.91;5120327;27;65766;-35
2021/12/17 11:54:28;;;;;;;;;;;;;;;31.74;65.87;100862.69;5126287;27;70134;-35
2021/12/17 11:57:08;;;;;;;;;;;;;;;31.73;65.52;100863.75;5132180;27;65341;-35
2021/12/17 11:59:40;;;;;;;;;;;;;;;31.66;66.84;100860.28;5125110;27;70013;-35
2021/12/17 12:02:20;;;;;;;;;;;;;;;31.39;67.62;100860.53;5118928;27;66140;-34
2021/12/17 12:04:57;;;;;;;;;;;;;;;31.28;67.72;100860.44;5126979;27;70136;-35
2021/12/17 12:07:28;;;;;;;;;;;;;;;31.16;68.16;100869.28;5120205;27;66577;-34
2021/12/17 12:10:08;;;;;;;;;;;;;;;31.06;68.17;100871.66;5121479;27;69279;-35
2021/12/17 12:12:45;;;;;;;;;;;;;;;31.04;67.95;100876.50;5116953;27;66516;-34
2021/12/17 12:15:23;;;;;;;;;;;;;;;30.98;68.62;100888.22;5129421;27;69438;-34
2021/12/17 12:18:18;;;;;;;;;;;;;;;30.92;68.02;100886.38;5096607;27;66504;-35
2021/12/17 12:20:49;;;;;;;;;;;;;;;30.91;68.67;100890.16;5128027;27;70333;-34
2021/12/17 12:23:27;;;;;;;;;;;;;;;30.85;68.79;100904.56;5131980;27;66365;-33
2021/12/17 12:29:13;;;;;;;;;;;;;;;30.79;70.07;100905.44;5113000;27;66186;-35
2021/12/17 12:31:45;;;;;;;;;;;;;;;30.75;70.54;100917.72;5127613;27;70105;-34
2021/12/17 12:34:17;;;;;;;;;;;;;;;30.64;70.41;100916.53;5102359;27;65278;-34
2021/12/17 12:37:21;;;;;;;;;;;;;;;30.66;70.66;100923.41;5106109;27;69738;-35
2021/12/17 12:40:15;;;;;;;;;;;;;;;30.63;70.59;100928.44;5120363;27;64885;-35
2021/12/17 12:42:52;;;;;;;;;;;;;;;30.58;70.82;100931.78;5125016;27;70130;-35
2021/12/17 12:45:43;;;;;;;;;;;;;;;30.54;70.64;100927.88;5121043;27;65715;-35
2021/12/17 12:48:32;;;;;;;;;;;;;;;30.52;70.76;100921.00;5084798;27;69524;-34
2021/12/17 12:51:13;;;;;;;;;;;;;;;30.45;71.36;100927.28;5128026;27;66716;-36
2021/12/17 12:54:02;;;;;;;;;;;;;;;30.42;71.23;100927.72;5125226;27;70490;-35
2021/12/17 12:56:34;;;;;;;;;;;;;;;30.38;71.55;100925.66;5108087;27;66519;-34
2021/12/17 12:59:15;;;;;;;;;;;;;;;30.39;71.62;100938.13;5113369;27;69754;-35
2021/12/17 13:01:49;;;;;;;;;;;;;;;30.37;71.21;100941.06;5104718;27;65427;-35
2021/12/17 13:04:31;;;;;;;;;;;;;;;30.35;71.26;100947.75;5123878;27;70047;-36
2021/12/17 13:07:10;;;;;;;;;;;;;;;30.33;71.34;100944.41;5105964;27;67090;-35
2021/12/17 13:09:50;;;;;;;;;;;;;;;30.32;71.72;100946.28;5136630;27;69975;-34
2021/12/17 13:12:30;;;;;;;;;;;;;;;30.27;70.89;100957.75;5103672;27;65337;-34
2021/12/17 13:15:16;;;;;;;;;;;;;;;30.27;71.29;100956.94;5109267;27;69872;-35
2021/12/17 13:21:20;;;;;;;;;;;;;;;30.19;71.76;100966.06;5118512;27;70500;-35
2021/12/17 13:24:20;;;;;;;;;;;;;;;30.19;73.47;100963.38;5098673;27;66017;-35
2021/12/17 13:26:58;;;;;;;;;;;;;;;30.13;72.75;100977.75;5107352;27;69330;-34
2021/12/17 13:29:52;;;;;;;;;;;;;;;29.71;70.66;100952.91;5107645;27;65967;-34
2021/12/17 13:32:27;;;;;;;;;;;;;;;29.73;69.03;100977.84;5102129;27;70093;-37
2021/12/17 13:35:01;;;;;;;;;;;;;;;29.61;69.46;100977.63;5089412;27;64983;-35
2021/12/17 13:37:52;;;;;;;;;;;;;;;29.50;69.29;100983.66;5107249;27;69279;-37
2021/12/17 13:40:37;;;;;;;;;;;;;;;29.39;69.61;100979.72;5105627;27;67449;-37
2021/12/17 13:43:31;;;;;;;;;;;;;;;29.32;69.41;100978.88;5110737;27;69616;-39
2021/12/17 13:46:07;;;;;;;;;;;;;;;29.23;68.79;100982.00;5127387;27;65631;-35
2021/12/17 13:48:53;;;;;;;;;;;;;;;29.14;68.49;100978.66;5104339;27;69145;-34
2021/12/17 13:51:30;;;;;;;;;;;;;;;29.08;67.65;100979.47;5107069;27;65648;-41
2021/12/17 13:54:39;;;;;;;;;;;;;;;28.99;67.41;100975.28;5097240;27;70157;-34
2021/12/17 13:57:32;;;;;;;;;;;;;;;28.92;66.64;100986.91;5115954;27;66309;-34
2021/12/17 14:00:54;;;;;;;;;;;;;;;28.78;66.79;100985.22;5119903;27;69066;-33
2021/12/17 14:03:34;;;;;;;;;;;;;;;28.71;65.86;100981.66;5102681;27;66033;-34
2021/12/17 14:06:21;;;;;;;;;;;;;;;28.61;65.72;100973.09;5111366;27;70318;-35
2021/12/17 14:09:01;;;;;;;;;;;;;;;28.54;65.99;100983.06;5106536;27;66210;-34
2021/12/17 14:11:52;;;;;;;;;;;;;;;28.51;65.90;100976.19;5119868;27;70090;-35
2021/12/17 14:15:07;;;;;;;;;;;;;;;28.44;66.32;100973.47;5108819;27;65829;-34
2021/12/17 14:17:48;;;;;;;;;;;;;;;28.46;66.21;100982.19;5089282;27;69323;-34
2021/12/17 14:21:10;;;;;;;;;;;;;;;28.38;66.12;100974.25;5113421;27;66618;-34
2021/12/17 14:23:53;;;;;;;;;;;;;;;28.36;66.16;100975.47;5106858;27;70120;-34
2021/12/17 14:26:51;;;;;;;;;;;;;;;28.36;66.02;100983.56;5125423;27;64366;-34
2021/12/17 14:30:11;;;;;;;;;;;;;;;28.32;65.60;100985.84;5118967;27;70003;-34
2021/12/17 14:32:50;;;;;;;;;;;;;;;28.26;65.83;100981.25;5072454;27;65894;-38
2021/12/17 14:35:46;;;;;;;;;;;;;;;28.24;65.56;100983.31;5100290;27;69660;-34
2021/12/17 14:38:57;;;;;;;;;;;;;;;28.19;65.44;100986.59;5123255;27;66643;-35
2021/12/17 14:42:06;;;;;;;;;;;;;;;28.10;65.58;100982.41;5121577;27;70091;-35
2021/12/17 14:45:21;;;;;;;;;;;;;;;28.12;65.26;100980.34;5117698;27;65615;-34
2021/12/17 14:48:20;;;;;;;;;;;;;;;28.09;65.33;100977.22;5106245;27;70994;-34
2021/12/17 15:00:23;;;;;;;;;;;;;;;28.08;64.88;100979.06;5103136;27;70035;-33
2021/12/17 15:02:49;;;;;;;;;;;;;;;28.21;63.30;100978.31;5113120;27;66633;-36
2021/12/17 15:05:31;;;;;;;;;;;;;;;28.25;61.91;100976.88;5109760;27;69904;-33
2021/12/17 15:08:13;;;;;;;;;;;;;;;28.27;60.72;100972.94;5088082;27;66305;-35
2021/12/17 15:10:54;;;;;;;;;;;;;;;28.26;59.18;100960.50;5126683;27;70226;-34
2021/12/17 15:13:27;;;;;;;;;;;;;;;28.19;58.29;100959.63;5125019;27;66905;-35
2021/12/17 15:15:57;;;;;;;;;;;;;;;28.15;57.17;100954.84;5123005;27;69453;-34
2021/12/17 15:18:29;;;;;;;;;;;;;;;28.10;56.12;100955.44;5097352;27;64951;-35
2021/12/17 15:21:00;;;;;;;;;;;;;;;28.05;55.78;100953.38;5109888;27;69868;-35
2021/12/17 15:23:31;;;;;;;;;;;;;;;28.02;54.17;100953.72;5126102;27;65257;-34
2021/12/17 15:26:03;;;;;;;;;;;;;;;27.96;54.18;100951.84;5096079;27;70396;-35
2021/12/17 15:28:36;;;;;;;;;;;;;;;27.95;53.92;100952.06;5080463;27;64369;-34
2021/12/17 15:31:08;;;;;;;;;;;;;;;27.87;53.34;100950.34;5107751;27;70146;-36
2021/12/17 15:33:39;;;;;;;;;;;;;;;27.82;53.31;100952.78;5124997;27;66421;-37
2021/12/17 15:36:09;;;;;;;;;;;;;;;27.81;52.78;100956.53;5095150;27;70687;-34
2021/12/17 15:38:39;;;;;;;;;;;;;;;27.75;52.43;100947.34;5110562;27;65991;-34
2021/12/17 15:41:09;;;;;;;;;;;;;;;27.74;52.26;100952.91;5122303;27;69910;-35
2021/12/17 15:43:39;;;;;;;;;;;;;;;27.68;51.89;100957.22;5096048;27;66714;-34
2021/12/17 15:46:10;;;;;;;;;;;;;;;27.64;52.05;100955.97;5105302;27;69809;-34
2021/12/17 15:48:40;;;;;;;;;;;;;;;27.63;51.68;100951.59;5123843;27;64165;-33
2021/12/17 15:51:10;;;;;;;;;;;;;;;27.57;51.45;100947.81;5123903;27;70162;-35
2021/12/17 15:54:00;;;;;;;;;;;;;;;;;;;;;
2021/12/17 15:56:51;;;;;;;;;;;;;;;27.55;51.80;100946.34;5107276;27;69946;-33
2021/12/17 15:59:21;;;;;;;;;;;;;;;27.60;52.67;100947.44;5107964;27;65582;-33
2021/12/17 16:01:51;;;;;;;;;;;;;;;27.62;53.00;100949.94;5122688;27;69757;-33
2021/12/17 16:04:21;;;;;;;;;;;;;;;27.61;52.97;100951.81;5128450;27;66624;-33
2021/12/17 16:06:52;;;;;;;;;;;;;;;27.60;53.13;100950.13;5125267;27;70331;-35
2021/12/17 16:23:25;;;;;;;;;;;;;;;27.61;54.33;100957.19;5124864;27;69896;-32
2021/12/17 16:25:55;;;;;;;;;;;;;;;27.60;54.23;100955.50;5126378;27;66205;-33
2021/12/17 16:28:27;;;;;;;;;;;;;;;27.63;53.83;100957.81;5124480;27;69536;-35
2021/12/17 16:31:11;;;;;;;;;;;;;;;27.63;53.71;100962.38;5126000;27;66323;-33
2021/12/17 16:33:42;;;;;;;;;;;;;;;27.65;53.93;100963.03;5124504;27;70200;-34
2021/12/17 16:36:12;;;;;;;;;;;;;;;27.61;53.80;100957.19;5130911;27;65615;-34
2021/12/17 16:38:42;;;;;;;;;;;;;;;27.59;54.07;100958.41;5125469;27;69504;-33
2021/12/17 16:41:13;;;;;;;;;;;;;;;27.59;53.79;100964.63;5126125;27;65694;-33
2021/12/17 16:43:44;;;;;;;;;;;;;;;27.61;53.76;100957.19;5131842;27;69433;-34
2021/12/17 16:48:48;;;;;;;;;;;;;;;27.65;56.52;100951.41;5125435;27;69949;-34
2021/12/17 16:51:20;;;;;;;;;;;;;;;27.74;58.03;100950.22;5126723;27;66631;-34
2021/12/17 16:53:50;;;;;;;;;;;;;;;27.81;58.57;100945.75;5124628;27;69906;-32
2021/12/17 16:56:20;;;;;;;;;;;;;;;27.88;60.13;100945.78;5132166;27;66373;-34
2021/12/17 16:58:51;;;;;;;;;;;;;;;27.95;60.87;100952.88;5111116;27;70039;-34
2021/12/17 17:01:22;;;;;;;;;;;;;;;27.91;61.42;100946.22;5123896;27;66650;-34